Terminal Aerodrome Forecast
Issued by NWS

Home | Current Version | Previous Version | Graphics & Text | Print | Product List | Glossary On
Versions: 1 2 3 4 5 6 7 8 9 10 11 12 13 14 15 16 17 18 19 20 21 22 23 24 25 26 27 28 29 30
000
FTUS43 KLOT 272330
TAFDPA
TAF
KDPA 272330Z 2800/2824 09006KT P6SM FEW035 BKN200
     FM280200 10005KT P6SM SCT080 BKN150
     FM281500 31008KT P6SM VCSH SCT025 BKN035 PROB30 2815/2818 4SM
      TSRA BKN015 OVC035CB
     FM282000 30012KT P6SM SCT040 BKN100=

USA.gov is the U.S. government's official web portal to all federal, state and local government web resources and services.